createdAt,value
2019-02-10T00:00:54.399Z,97753.64
2019-02-10T00:03:26.418Z,97752.59
2019-02-10T00:05:58.550Z,97745.83
2019-02-10T00:08:30.542Z,97739.47
2019-02-10T00:11:02.565Z,97725.61
2019-02-10T00:13:35.844Z,97734.97
2019-02-10T00:16:10.437Z,97733.32
2019-02-10T00:18:42.415Z,97725.64
2019-02-10T00:21:14.456Z,97726.17
2019-02-10T00:23:46.544Z,97724.51
2019-02-10T00:26:18.577Z,97723.59
2019-02-10T00:28:50.563Z,97719.70
2019-02-10T00:31:22.551Z,97708.95
2019-02-10T00:33:54.541Z,97704.27
2019-02-10T00:36:32.940Z,97703.12
2019-02-10T00:39:00.470Z,97694.02
2019-02-10T00:41:32.492Z,97700.20
2019-02-10T00:44:04.472Z,97693.75
2019-02-10T00:46:36.462Z,97695.98
2019-02-10T00:49:08.461Z,97693.46
2019-02-10T00:51:40.479Z,97691.44
2019-02-10T00:54:12.535Z,97687.37
2019-02-10T00:56:44.652Z,97683.98
2019-02-10T00:59:16.644Z,97682.71
2019-02-10T01:01:48.697Z,97678.39
2019-02-10T01:04:20.716Z,97672.31
2019-02-10T01:06:52.697Z,97667.25
2019-02-10T01:09:24.686Z,97668.00
2019-02-10T01:11:56.712Z,97659.63
2019-02-10T01:14:28.716Z,97664.67
2019-02-10T01:17:00.731Z,97665.30
2019-02-10T01:19:32.759Z,97653.00
2019-02-10T01:22:04.723Z,97654.41
2019-02-10T01:24:36.745Z,97649.73
2019-02-10T01:27:08.744Z,97645.72
2019-02-10T01:29:40.754Z,97634.59
2019-02-10T01:32:12.720Z,97642.50
2019-02-10T01:34:44.708Z,97643.75
2019-02-10T01:37:16.679Z,97644.03
2019-02-10T01:39:48.661Z,97644.07
2019-02-10T01:42:20.652Z,97632.48
2019-02-10T01:44:52.640Z,97628.61
2019-02-10T01:47:24.614Z,97628.61
2019-02-10T01:49:56.613Z,97623.06
2019-02-10T01:52:28.589Z,97611.94
2019-02-10T01:55:00.629Z,97604.48
2019-02-10T01:57:32.574Z,97604.09
2019-02-10T02:00:05.755Z,97603.41
2019-02-10T02:02:37.736Z,97599.02
2019-02-10T02:05:09.823Z,97587.04
2019-02-10T02:07:41.797Z,97584.87
2019-02-10T02:10:13.968Z,97577.33
2019-02-10T02:12:45.926Z,97572.70
2019-02-10T02:15:17.944Z,97565.23
2019-02-10T02:17:49.908Z,97558.95
2019-02-10T02:20:21.913Z,97536.95
2019-02-10T02:22:53.882Z,97538.08
2019-02-10T02:25:25.914Z,97523.13
2019-02-10T02:27:57.862Z,97519.27
2019-02-10T02:30:29.843Z,97506.86
2019-02-10T02:33:01.921Z,97499.94
2019-02-10T02:35:33.896Z,97489.98
2019-02-10T02:38:05.880Z,97479.20
2019-02-10T02:40:37.875Z,97470.98
2019-02-10T02:43:09.868Z,97468.80
2019-02-10T02:45:41.855Z,97466.81
2019-02-10T02:48:13.829Z,97459.34
2019-02-10T02:50:45.820Z,97452.50
2019-02-10T02:53:17.802Z,97457.94
2019-02-10T02:55:49.792Z,97452.89
2019-02-10T02:58:21.822Z,97441.88
2019-02-10T03:00:53.794Z,97442.45
2019-02-10T03:03:25.795Z,97439.34
2019-02-10T03:05:57.747Z,97422.51
2019-02-10T03:08:29.759Z,97421.63
2019-02-10T03:11:01.746Z,97415.08
2019-02-10T03:13:33.734Z,97403.00
2019-02-10T03:16:05.715Z,97398.38
2019-02-10T03:18:37.723Z,97389.95
2019-02-10T03:21:09.701Z,97391.02
2019-02-10T03:23:41.687Z,97389.22
2019-02-10T03:26:13.661Z,97390.19
2019-02-10T03:28:45.676Z,97375.86
2019-02-10T03:31:17.664Z,97367.70
2019-02-10T03:33:49.668Z,97370.45
2019-02-10T03:36:21.622Z,97362.12
2019-02-10T03:38:53.629Z,97356.29
2019-02-10T03:41:25.780Z,97340.53
2019-02-10T03:43:57.761Z,97350.16
2019-02-10T03:46:29.721Z,97333.87
2019-02-10T03:49:01.721Z,97321.19
2019-02-10T03:51:33.679Z,97324.34
2019-02-10T03:54:05.662Z,97327.72
2019-02-10T03:56:37.659Z,97323.13
2019-02-10T03:59:09.641Z,97315.75
2019-02-10T04:01:41.697Z,97304.38
2019-02-10T04:04:13.703Z,97287.09
2019-02-10T04:06:45.660Z,97281.34
2019-02-10T04:09:17.661Z,97282.92
2019-02-10T04:11:49.618Z,97272.85
2019-02-10T04:14:21.613Z,97277.45
2019-02-10T04:16:53.592Z,97263.19
2019-02-10T04:19:25.585Z,97259.86
2019-02-10T04:21:57.654Z,97254.32
2019-02-10T04:24:29.654Z,97253.25
2019-02-10T04:27:01.605Z,97253.78
2019-02-10T04:29:33.572Z,97256.20
2019-02-10T04:32:05.536Z,97245.66
2019-02-10T04:34:37.518Z,97243.52
2019-02-10T04:37:09.497Z,97246.65
2019-02-10T04:39:41.512Z,97239.05
2019-02-10T04:42:13.476Z,97236.20
2019-02-10T04:44:45.454Z,97228.31
2019-02-10T04:47:17.443Z,97224.98
2019-02-10T04:49:49.418Z,97220.59
2019-02-10T04:52:21.402Z,97222.25
2019-02-10T04:54:53.378Z,97213.94
2019-02-10T04:57:25.365Z,97200.90
2019-02-10T05:02:56.863Z,97191.38
2019-02-10T05:05:28.834Z,97174.20
2019-02-10T05:11:00.006Z,97177.11
2019-02-10T05:13:31.984Z,97167.20
2019-02-10T05:16:04.011Z,97174.06
2019-02-10T05:18:36.013Z,97159.95
2019-02-10T05:21:07.986Z,97152.04
2019-02-10T05:23:39.983Z,97152.69
2019-02-10T05:26:11.958Z,97149.97
2019-02-10T05:28:43.926Z,97158.20
2019-02-10T05:31:15.908Z,97154.25
2019-02-10T05:33:47.923Z,97138.58
2019-02-10T05:36:19.904Z,97130.33
2019-02-10T05:38:51.898Z,97120.77
2019-02-10T05:41:23.886Z,97109.45
2019-02-10T05:43:55.860Z,97108.67
2019-02-10T05:46:27.830Z,97103.25
2019-02-10T05:49:19.292Z,97104.73
2019-02-10T05:51:51.262Z,97096.29
2019-02-10T05:54:23.253Z,97100.09
2019-02-10T05:56:55.258Z,97098.60
2019-02-10T05:59:27.272Z,97093.32
2019-02-10T06:05:28.923Z,97080.17
2019-02-10T06:08:00.952Z,97072.78
2019-02-10T06:10:32.977Z,97067.80
2019-02-10T06:13:04.939Z,97064.50
2019-02-10T06:15:36.933Z,97056.84
2019-02-10T06:18:08.921Z,97056.08
2019-02-10T06:20:40.918Z,97053.33
2019-02-10T06:23:12.880Z,97048.08
2019-02-10T06:25:44.873Z,97050.08
2019-02-10T06:28:16.831Z,97030.96
2019-02-10T06:30:48.829Z,97029.39
2019-02-10T06:33:20.817Z,97030.03
2019-02-10T06:35:52.866Z,97021.76
2019-02-10T06:38:24.840Z,97006.69
2019-02-10T06:40:56.840Z,97021.14
2019-02-10T06:43:28.809Z,97003.02
2019-02-10T06:46:00.850Z,97005.80
2019-02-10T06:48:32.824Z,97005.34
2019-02-10T06:51:04.842Z,96996.64
2019-02-10T06:53:36.815Z,96997.14
2019-02-10T06:56:08.835Z,96997.52
2019-02-10T06:58:40.845Z,96998.33
2019-02-10T07:01:18.463Z,96997.95
2019-02-10T07:04:01.796Z,96996.96
2019-02-10T07:06:33.822Z,96995.31
2019-02-10T07:09:05.798Z,96995.10
2019-02-10T07:11:37.798Z,96997.61
2019-02-10T07:14:33.333Z,96997.39
2019-02-10T07:17:47.444Z,96993.11
2019-02-10T07:20:39.773Z,96991.73
2019-02-10T07:24:05.646Z,96995.20
2019-02-10T07:26:52.706Z,96992.34
2019-02-10T07:29:42.100Z,96987.76
2019-02-10T07:32:22.298Z,96980.88
2019-02-10T07:35:10.007Z,96968.00
2019-02-10T07:38:12.993Z,96961.02
2019-02-10T07:41:32.872Z,96953.67
2019-02-10T07:44:53.163Z,96950.31
2019-02-10T07:48:01.248Z,96943.03
2019-02-10T07:51:12.772Z,96941.40
2019-02-10T07:54:16.128Z,96932.20
2019-02-10T07:57:39.075Z,96927.07
2019-02-10T08:00:43.683Z,96920.19
2019-02-10T08:03:59.545Z,96901.11
2019-02-10T08:06:55.894Z,96892.22
2019-02-10T08:10:03.271Z,96882.23
2019-02-10T08:13:18.856Z,96872.79
2019-02-10T08:16:36.090Z,96858.80
2019-02-10T08:19:58.765Z,96844.65
2019-02-10T08:23:04.294Z,96835.49
2019-02-10T08:26:17.023Z,96836.55
2019-02-10T08:29:25.763Z,96825.58
2019-02-10T08:32:34.748Z,96824.30
2019-02-10T08:35:45.577Z,96817.22
2019-02-10T08:39:00.446Z,96801.65
2019-02-10T08:42:17.758Z,96796.67
2019-02-10T08:45:18.487Z,96776.06
2019-02-10T08:48:50.460Z,96772.14
2019-02-10T08:52:02.860Z,96760.30
2019-02-10T08:54:34.942Z,96747.78
2019-02-10T08:57:06.998Z,96743.45
2019-02-10T08:59:39.048Z,96750.12
2019-02-10T09:02:11.034Z,96741.66
2019-02-10T09:04:43.040Z,96738.25
2019-02-10T09:07:16.307Z,96728.95
2019-02-10T09:09:48.340Z,96728.95
2019-02-10T09:12:20.381Z,96729.59
2019-02-10T09:14:52.416Z,96722.73
2019-02-10T09:17:24.453Z,96710.48
2019-02-10T09:19:56.475Z,96705.80
2019-02-10T09:22:28.502Z,96706.86
2019-02-10T09:25:00.579Z,96705.52
2019-02-10T09:27:32.625Z,96701.34
2019-02-10T09:30:05.556Z,96691.42
2019-02-10T09:32:37.624Z,96696.91
2019-02-10T09:35:09.741Z,96683.78
2019-02-10T09:37:41.805Z,96677.38
2019-02-10T09:40:13.805Z,96666.69
2019-02-10T09:42:46.005Z,96652.97
2019-02-10T09:45:18.030Z,96663.63
2019-02-10T09:47:50.345Z,96655.82
2019-02-10T09:50:22.375Z,96657.41
2019-02-10T09:52:54.385Z,96658.55
2019-02-10T09:55:26.466Z,96656.06
2019-02-10T09:57:59.591Z,96645.45
2019-02-10T10:00:34.859Z,96642.96
2019-02-10T10:03:06.976Z,96642.99
2019-02-10T10:05:39.018Z,96632.93
2019-02-10T10:08:11.060Z,96621.97
2019-02-10T10:10:43.069Z,96621.98
2019-02-10T10:13:15.118Z,96609.98
2019-02-10T10:15:47.098Z,96609.56
2019-02-10T10:18:19.173Z,96604.19
2019-02-10T10:20:51.554Z,96601.09
2019-02-10T10:23:23.725Z,96600.41
2019-02-10T10:25:55.775Z,96590.78
2019-02-10T10:28:28.910Z,96583.16
2019-02-10T10:31:01.054Z,96583.83
2019-02-10T10:33:33.105Z,96584.53
2019-02-10T10:36:05.116Z,96575.31
2019-02-10T10:38:37.142Z,96577.13
2019-02-10T10:41:09.249Z,96564.80
2019-02-10T10:43:41.358Z,96552.70
2019-02-10T10:46:13.343Z,96536.98
2019-02-10T10:48:45.423Z,96532.44
2019-02-10T10:51:17.517Z,96521.50
2019-02-10T10:53:49.564Z,96510.88
2019-02-10T10:56:21.574Z,96510.55
2019-02-10T10:58:53.658Z,96499.82
2019-02-10T11:01:25.717Z,96504.00
2019-02-10T11:03:57.817Z,96500.88
2019-02-10T11:06:29.898Z,96494.50
2019-02-10T11:09:03.971Z,96497.45
2019-02-10T11:11:36.038Z,96480.72
2019-02-10T11:14:08.162Z,96466.59
2019-02-10T11:16:40.299Z,96451.98
2019-02-10T11:19:12.445Z,96449.42
2019-02-10T11:21:44.623Z,96442.63
2019-02-10T11:24:16.795Z,96444.10
2019-02-10T11:26:48.900Z,96441.17
2019-02-10T11:29:20.971Z,96428.30
2019-02-10T11:31:53.126Z,96422.44
2019-02-10T11:34:25.153Z,96413.86
2019-02-10T11:36:57.266Z,96417.53
2019-02-10T11:39:29.302Z,96415.27
2019-02-10T11:42:01.461Z,96400.65
2019-02-10T11:44:33.476Z,96394.73
2019-02-10T11:47:05.557Z,96388.61
2019-02-10T11:49:37.614Z,96373.78
2019-02-10T11:52:10.599Z,96367.63
2019-02-10T11:54:42.678Z,96357.52
2019-02-10T11:57:14.793Z,96359.20
2019-02-10T11:59:47.047Z,96351.95
2019-02-10T12:02:19.104Z,96346.05
2019-02-10T12:04:51.145Z,96337.83
2019-02-10T12:07:23.716Z,96337.90
2019-02-10T12:09:55.768Z,96329.74
2019-02-10T12:12:27.971Z,96325.30
2019-02-10T12:15:00.141Z,96321.09
2019-02-10T12:17:32.221Z,96304.92
2019-02-10T12:20:04.452Z,96297.75
2019-02-10T12:22:36.663Z,96303.91
2019-02-10T12:25:08.719Z,96289.30
2019-02-10T12:27:40.778Z,96284.05
2019-02-10T12:30:12.787Z,96278.39
2019-02-10T12:32:44.857Z,96266.06
2019-02-10T12:35:16.850Z,96286.67
2019-02-10T12:37:49.898Z,96269.55
2019-02-10T12:40:21.897Z,96276.95
2019-02-10T12:42:53.994Z,96271.38
2019-02-10T12:45:26.026Z,96255.82
2019-02-10T12:47:58.112Z,96275.77
2019-02-10T12:50:30.087Z,96258.53
2019-02-10T12:53:02.228Z,96248.65
2019-02-10T12:55:34.236Z,96254.84
2019-02-10T12:58:06.736Z,96251.00
2019-02-10T13:00:38.803Z,96233.77
2019-02-10T13:03:10.834Z,96228.81
2019-02-10T13:05:43.091Z,96239.42
2019-02-10T13:08:15.111Z,96251.47
2019-02-10T13:10:47.156Z,96236.91
2019-02-10T13:13:19.668Z,96257.35
2019-02-10T13:15:51.847Z,96237.47
2019-02-10T13:18:23.956Z,96264.43
2019-02-10T13:20:56.438Z,96250.20
2019-02-10T13:23:28.441Z,96262.19
2019-02-10T13:26:00.505Z,96256.56
2019-02-10T13:28:32.580Z,96278.10
2019-02-10T13:31:04.673Z,96276.22
2019-02-10T13:33:36.654Z,96304.17
2019-02-10T13:36:08.742Z,96285.76
2019-02-10T13:38:40.768Z,96277.08
2019-02-10T13:41:12.840Z,96268.53
2019-02-10T13:43:44.867Z,96278.30
2019-02-10T13:46:16.921Z,96294.50
2019-02-10T13:48:48.959Z,96290.23
2019-02-10T13:51:21.718Z,96282.14
2019-02-10T13:53:53.817Z,96285.13
2019-02-10T13:56:25.908Z,96271.66
2019-02-10T13:58:57.948Z,96262.42
2019-02-10T14:01:30.028Z,96250.56
2019-02-10T14:04:02.190Z,96254.32
2019-02-10T14:06:34.210Z,96258.52
2019-02-10T14:09:06.418Z,96255.71
2019-02-10T14:11:38.475Z,96242.98
2019-02-10T14:14:10.519Z,96241.62
2019-02-10T14:16:42.670Z,96248.70
2019-02-10T14:19:14.733Z,96255.73
2019-02-10T14:21:47.563Z,96245.12
2019-02-10T14:24:19.653Z,96245.22
2019-02-10T14:26:52.697Z,96248.62
2019-02-10T14:29:24.841Z,96254.27
2019-02-10T14:31:56.955Z,96243.08
2019-02-10T14:34:29.019Z,96246.52
2019-02-10T14:37:01.161Z,96218.51
2019-02-10T14:39:33.251Z,96244.59
2019-02-10T14:42:05.291Z,96224.13
2019-02-10T14:44:38.160Z,96232.81
2019-02-10T14:47:10.188Z,96228.20
2019-02-10T14:49:42.275Z,96224.36
2019-02-10T14:52:14.295Z,96219.88
2019-02-10T14:54:46.586Z,96233.72
2019-02-10T14:57:18.792Z,96208.05
2019-02-10T14:59:50.885Z,96220.69
2019-02-10T15:02:23.245Z,96219.66
2019-02-10T15:04:55.325Z,96215.98
2019-02-10T15:07:27.433Z,96226.73
2019-02-10T15:09:59.641Z,96219.33
2019-02-10T15:12:31.680Z,96207.90
2019-02-10T15:15:04.545Z,96198.56
2019-02-10T15:17:36.713Z,96199.58
2019-02-10T15:20:08.901Z,96191.73
2019-02-10T15:22:40.987Z,96191.73
2019-02-10T15:25:13.188Z,96193.28
2019-02-10T15:27:47.558Z,96185.88
2019-02-10T15:30:19.832Z,96190.70
2019-02-10T15:32:51.903Z,96187.40
2019-02-10T15:35:24.027Z,96201.95
2019-02-10T15:37:56.177Z,96198.38
2019-02-10T15:40:28.462Z,96189.44
2019-02-10T15:43:00.598Z,96202.81
2019-02-10T15:45:32.774Z,96210.61
2019-02-10T15:48:04.929Z,96204.50
2019-02-10T15:50:39.322Z,96208.35
2019-02-10T15:53:11.355Z,96222.81
2019-02-10T15:55:43.995Z,96226.45
2019-02-10T15:58:16.137Z,96233.47
2019-02-10T16:00:48.209Z,96259.27
2019-02-10T16:03:20.221Z,96252.66
2019-02-10T16:05:52.329Z,96276.38
2019-02-10T16:08:24.379Z,96266.97
2019-02-10T16:10:58.159Z,96255.00
2019-02-10T16:13:30.510Z,96255.64
2019-02-10T16:16:02.678Z,96279.36
2019-02-10T16:18:34.700Z,96282.03
2019-02-10T16:21:06.747Z,96277.91
2019-02-10T16:23:38.941Z,96279.33
2019-02-10T16:26:11.191Z,96287.99
2019-02-10T16:28:43.346Z,96307.18
2019-02-10T16:31:15.520Z,96310.06
2019-02-10T16:33:47.654Z,96315.80
2019-02-10T16:36:19.851Z,96332.44
2019-02-10T16:38:52.038Z,96320.03
2019-02-10T16:41:24.134Z,96323.55
2019-02-10T16:43:56.220Z,96328.82
2019-02-10T16:46:28.280Z,96321.41
2019-02-10T16:49:00.384Z,96333.63
2019-02-10T16:51:32.512Z,96324.89
2019-02-10T16:54:04.722Z,96336.90
2019-02-10T16:56:38.074Z,96335.41
2019-02-10T16:59:10.249Z,96366.34
2019-02-10T17:01:42.444Z,96388.16
2019-02-10T17:04:15.074Z,96392.62
2019-02-10T17:06:47.175Z,96390.53
2019-02-10T17:09:19.318Z,96386.26
2019-02-10T17:11:51.396Z,96388.92
2019-02-10T17:14:23.646Z,96383.84
2019-02-10T17:16:55.770Z,96394.91
2019-02-10T17:19:27.965Z,96405.27
2019-02-10T17:22:00.422Z,96393.98
2019-02-10T17:24:32.647Z,96429.52
2019-02-10T17:27:04.740Z,96454.67
2019-02-10T17:29:37.082Z,96401.03
2019-02-10T17:32:09.141Z,96418.28
2019-02-10T17:34:41.258Z,96454.05
2019-02-10T17:37:13.274Z,96455.64
2019-02-10T17:39:45.438Z,96430.00
2019-02-10T17:42:17.527Z,96497.94
2019-02-10T17:44:49.645Z,96514.91
2019-02-10T17:47:21.742Z,96528.53
2019-02-10T17:49:53.838Z,96498.31
2019-02-10T17:52:31.868Z,96497.61
2019-02-10T17:54:59.956Z,96494.37
2019-02-10T17:57:32.054Z,96531.98
2019-02-10T18:00:04.760Z,96556.33
2019-02-10T18:02:36.860Z,96582.64
2019-02-10T18:05:09.046Z,96565.66
2019-02-10T18:07:41.189Z,96570.73
2019-02-10T18:10:13.353Z,96570.10
2019-02-10T18:12:45.409Z,96537.67
2019-02-10T18:15:45.962Z,96544.34
2019-02-10T18:18:43.403Z,96537.44
2019-02-10T18:21:38.068Z,96571.09
2019-02-10T18:24:32.445Z,96593.89
2019-02-10T18:27:22.815Z,96603.06
2019-02-10T18:30:13.424Z,96619.52
2019-02-10T18:33:14.245Z,96640.16
2019-02-10T18:36:04.603Z,96654.87
2019-02-10T18:38:59.235Z,96671.13
2019-02-10T18:42:06.064Z,96679.23
2019-02-10T18:44:48.030Z,96684.90
2019-02-10T18:47:35.817Z,96690.03
2019-02-10T18:50:28.368Z,96702.48
2019-02-10T18:53:06.023Z,96702.64
2019-02-10T18:56:03.205Z,96691.56
2019-02-10T18:58:55.155Z,96688.23
2019-02-10T19:01:52.389Z,96689.86
2019-02-10T19:04:46.754Z,96708.12
2019-02-10T19:07:28.945Z,96736.93
2019-02-10T19:10:17.348Z,96739.02
2019-02-10T19:13:09.257Z,96738.25
2019-02-10T19:15:53.573Z,96747.54
2019-02-10T19:18:44.156Z,96762.80
2019-02-10T19:21:58.207Z,96780.40
2019-02-10T19:24:47.177Z,96773.39
2019-02-10T19:27:38.837Z,96779.45
2019-02-10T19:30:24.541Z,96775.75
2019-02-10T19:33:02.938Z,96779.73
2019-02-10T19:35:45.597Z,96783.64
2019-02-10T19:38:31.830Z,96783.20
2019-02-10T19:41:29.446Z,96801.50
2019-02-10T19:44:27.224Z,96800.05
2019-02-10T19:47:12.708Z,96808.27
2019-02-10T19:50:04.883Z,96813.75
2019-02-10T19:53:02.495Z,96815.81
2019-02-10T19:55:46.293Z,96818.81
2019-02-10T19:58:47.160Z,96823.52
2019-02-10T20:01:41.707Z,96815.73
2019-02-10T20:04:32.211Z,96813.86
2019-02-10T20:07:21.416Z,96811.94
2019-02-10T20:10:10.636Z,96810.56
2019-02-10T20:12:47.852Z,96820.11
2019-02-10T20:15:51.452Z,96812.52
2019-02-10T20:18:41.631Z,96822.47
2019-02-10T20:21:33.318Z,96816.71
2019-02-10T20:24:27.598Z,96814.87
2019-02-10T20:27:22.371Z,96800.75
2019-02-10T20:30:17.241Z,96800.94
2019-02-10T20:33:08.237Z,96794.60
2019-02-10T20:35:57.612Z,96808.89
2019-02-10T20:38:40.775Z,96803.58
2019-02-10T20:41:31.003Z,96794.78
2019-02-10T20:44:22.629Z,96803.72
2019-02-10T20:47:04.251Z,96807.05
2019-02-10T20:49:54.567Z,96808.13
2019-02-10T20:52:46.417Z,96798.09
2019-02-10T20:55:28.397Z,96803.17
2019-02-10T20:58:29.347Z,96815.15
2019-02-10T21:01:29.830Z,96822.97
2019-02-10T21:04:24.697Z,96815.16
2019-02-10T21:07:16.376Z,96816.05
2019-02-10T21:10:23.360Z,96817.69
2019-02-10T21:13:26.750Z,96809.10
2019-02-10T21:16:04.021Z,96838.86
2019-02-10T21:18:47.606Z,96837.20
2019-02-10T21:21:44.979Z,96840.53
2019-02-10T21:24:33.842Z,96857.11
2019-02-10T21:27:19.105Z,96859.38
2019-02-10T21:30:16.790Z,96876.34
2019-02-10T21:32:57.345Z,96875.08
2019-02-10T21:35:36.043Z,96887.58
2019-02-10T21:38:26.720Z,96897.50
2019-02-10T21:41:24.552Z,96895.55
2019-02-10T21:44:20.780Z,96902.96
2019-02-10T21:46:57.922Z,96905.41
2019-02-10T21:49:30.004Z,96921.48
2019-02-10T21:52:02.052Z,96922.06
2019-02-10T21:54:34.130Z,96936.77
2019-02-10T21:57:06.187Z,96929.55
2019-02-10T21:59:38.346Z,96954.59
2019-02-10T22:02:10.343Z,96947.88
2019-02-10T22:04:42.408Z,96954.19
2019-02-10T22:07:14.434Z,96952.56
2019-02-10T22:09:46.438Z,96963.55
2019-02-10T22:12:18.516Z,96966.38
2019-02-10T22:14:50.550Z,96965.30
2019-02-10T22:17:22.593Z,96964.54
2019-02-10T22:19:54.575Z,96964.24
2019-02-10T22:22:26.591Z,96974.66
2019-02-10T22:24:58.647Z,96974.67
2019-02-10T22:27:30.676Z,96981.58
2019-02-10T22:30:03.215Z,96981.00
2019-02-10T22:32:35.261Z,96987.72
2019-02-10T22:35:07.255Z,96993.58
2019-02-10T22:37:39.244Z,97003.22
2019-02-10T22:40:11.255Z,97007.57
2019-02-10T22:42:45.837Z,97000.56
2019-02-10T22:45:17.164Z,97000.36
2019-02-10T22:47:49.163Z,97009.72
2019-02-10T22:50:21.162Z,97012.34
2019-02-10T22:52:53.180Z,97005.34
2019-02-10T22:55:25.146Z,96994.63
2019-02-10T22:57:57.270Z,96999.42
2019-02-10T23:00:53.554Z,97010.90
2019-02-10T23:03:25.541Z,97014.03
2019-02-10T23:05:57.507Z,97014.39
2019-02-10T23:08:29.494Z,97025.41
2019-02-10T23:11:01.442Z,97025.51
2019-02-10T23:13:33.438Z,97035.84
2019-02-10T23:16:05.436Z,97038.16
2019-02-10T23:18:37.479Z,97042.95
2019-02-10T23:21:09.469Z,97047.44
2019-02-10T23:23:41.558Z,97038.77
2019-02-10T23:26:13.588Z,97044.92
2019-02-10T23:28:45.586Z,97047.03
2019-02-10T23:31:17.576Z,97056.50
2019-02-10T23:33:49.584Z,97052.30
2019-02-10T23:36:21.612Z,97064.58
2019-02-10T23:38:53.647Z,97071.61
2019-02-10T23:41:25.637Z,97064.50
2019-02-10T23:43:57.683Z,97075.27
2019-02-10T23:46:29.646Z,97076.02
2019-02-10T23:49:01.670Z,97083.14
2019-02-10T23:51:33.667Z,97090.14
2019-02-10T23:54:05.667Z,97092.28
2019-02-10T23:56:37.675Z,97097.06
2019-02-10T23:59:09.708Z,97095.13
